createdAt,value
2019-04-10T00:00:57.909Z,45.80
2019-04-10T00:01:58.108Z,45.20
2019-04-10T00:02:58.222Z,44.70
2019-04-10T00:03:58.703Z,45.70
2019-04-10T00:04:59.151Z,48.40
2019-04-10T00:05:59.148Z,46.90
2019-04-10T00:07:10.381Z,45.10
2019-04-10T00:07:59.867Z,46.00
2019-04-10T00:09:00.895Z,45.20
2019-04-10T00:10:00.479Z,45.20
2019-04-10T00:11:01.127Z,45.60
2019-04-10T00:12:01.135Z,45.70
2019-04-10T00:13:01.133Z,46.10
2019-04-10T00:14:01.605Z,46.20
2019-04-10T00:15:03.100Z,45.20
2019-04-10T00:16:03.478Z,43.70
2019-04-10T00:17:02.727Z,47.10
2019-04-10T00:18:02.172Z,46.70
2019-04-10T00:19:02.567Z,47.00
2019-04-10T00:20:02.957Z,44.60
2019-04-10T00:21:03.552Z,44.50
2019-04-10T00:22:04.245Z,46.40
2019-04-10T00:23:03.698Z,47.30
2019-04-10T00:24:03.925Z,45.20
2019-04-10T00:25:04.304Z,44.30
2019-04-10T00:26:03.913Z,47.10
2019-04-10T00:27:04.122Z,45.70
2019-04-10T00:28:05.245Z,46.70
2019-04-10T00:29:03.952Z,45.80
2019-04-10T00:30:04.826Z,45.40
2019-04-10T00:31:05.286Z,46.20
2019-04-10T00:32:05.673Z,46.40
2019-04-10T00:33:04.742Z,46.50
2019-04-10T00:34:05.385Z,46.70
2019-04-10T00:35:04.628Z,48.20
2019-04-10T00:36:05.158Z,45.90
2019-04-10T00:37:05.839Z,45.30
2019-04-10T00:38:05.500Z,46.20
2019-04-10T00:39:06.444Z,46.10
2019-04-10T00:40:06.822Z,47.10
2019-04-10T00:41:06.235Z,44.50
2019-04-10T00:42:06.522Z,43.60
2019-04-10T00:43:06.772Z,44.70
2019-04-10T00:44:07.784Z,46.00
2019-04-10T00:45:07.410Z,45.30
2019-04-10T00:46:08.198Z,47.10
2019-04-10T00:47:07.707Z,45.30
2019-04-10T00:48:08.090Z,45.20
2019-04-10T00:49:09.270Z,46.80
2019-04-10T00:50:08.686Z,45.40
2019-04-10T00:51:09.105Z,45.70
2019-04-10T00:52:10.174Z,46.30
2019-04-10T00:53:10.290Z,46.80
2019-04-10T00:54:09.907Z,45.30
2019-04-10T00:55:09.959Z,46.20
2019-04-10T00:56:10.432Z,47.00
2019-04-10T00:57:10.186Z,45.30
2019-04-10T00:58:10.576Z,45.70
2019-04-10T00:59:10.843Z,46.60
2019-04-10T01:00:11.420Z,46.70
2019-04-10T01:01:11.795Z,46.40
2019-04-10T01:02:12.213Z,46.20
2019-04-10T01:03:12.017Z,46.70
2019-04-10T01:04:12.434Z,47.20
2019-04-10T01:05:13.160Z,46.90
2019-04-10T01:06:13.643Z,44.60
2019-04-10T01:07:12.806Z,44.90
2019-04-10T01:08:13.075Z,43.70
2019-04-10T01:09:13.367Z,46.70
2019-04-10T01:11:14.896Z,45.00
2019-04-10T01:12:14.165Z,45.30
2019-04-10T01:13:14.635Z,45.10
2019-04-10T01:14:15.802Z,43.80
2019-04-10T01:15:15.420Z,44.10
2019-04-10T01:16:16.226Z,44.40
2019-04-10T01:17:15.887Z,44.30
2019-04-10T01:18:15.878Z,44.10
2019-04-10T01:19:17.497Z,44.70
2019-04-10T01:20:17.532Z,46.30
2019-04-10T01:21:16.496Z,46.30
2019-04-10T01:22:17.108Z,44.30
2019-04-10T01:23:16.819Z,44.50
2019-04-10T01:24:17.539Z,44.50
2019-04-10T01:25:18.607Z,43.10
2019-04-10T01:26:17.797Z,42.30
2019-04-10T01:27:18.210Z,41.20
2019-04-10T01:28:18.189Z,43.00
2019-04-10T01:29:19.675Z,41.90
2019-04-10T01:30:18.584Z,42.50
2019-04-10T01:31:19.863Z,41.30
2019-04-10T01:32:19.458Z,40.30
2019-04-10T01:33:19.390Z,41.30
2019-04-10T01:34:19.674Z,40.90
2019-04-10T01:35:20.301Z,40.50
2019-04-10T01:36:20.716Z,39.30
2019-04-10T01:37:20.882Z,38.60
2019-04-10T01:38:21.802Z,39.70
2019-04-10T01:39:22.255Z,38.30
2019-04-10T01:40:21.944Z,38.70
2019-04-10T01:41:21.934Z,36.40
2019-04-10T01:42:22.865Z,37.00
2019-04-10T01:43:22.608Z,36.50
2019-04-10T01:44:22.835Z,35.40
2019-04-10T01:45:23.111Z,36.90
2019-04-10T01:46:24.310Z,35.60
2019-04-10T01:47:23.719Z,36.90
2019-04-10T01:48:23.998Z,34.70
2019-04-10T01:49:24.353Z,35.90
2019-04-10T01:50:24.850Z,36.30
2019-04-10T01:51:25.567Z,33.90
2019-04-10T01:52:25.392Z,34.40
2019-04-10T01:53:26.024Z,35.30
2019-04-10T01:54:26.896Z,33.90
2019-04-10T01:55:29.611Z,34.00
2019-04-10T01:56:31.627Z,33.50
2019-04-10T01:57:26.620Z,33.00
2019-04-10T01:58:27.371Z,32.10
2019-04-10T01:59:27.194Z,33.90
2019-04-10T02:00:27.835Z,32.30
2019-04-10T02:01:28.350Z,32.50
2019-04-10T02:02:27.645Z,30.70
2019-04-10T02:03:27.891Z,30.60
2019-04-10T02:04:28.877Z,30.60
2019-04-10T02:05:28.281Z,31.10
2019-04-10T02:06:29.458Z,32.10
2019-04-10T02:08:29.837Z,31.00
2019-04-10T02:09:29.766Z,31.00
2019-04-10T02:10:30.074Z,31.40
2019-04-10T02:11:29.916Z,31.10
2019-04-10T02:12:30.394Z,29.40
2019-04-10T02:13:31.602Z,29.00
2019-04-10T02:14:30.697Z,29.80
2019-04-10T02:15:30.549Z,29.50
2019-04-10T02:16:30.768Z,29.40
2019-04-10T02:17:31.175Z,29.00
2019-04-10T02:18:31.408Z,28.90
2019-04-10T02:19:32.277Z,29.00
2019-04-10T02:20:31.947Z,29.10
2019-04-10T02:21:32.218Z,29.90
2019-04-10T02:22:32.912Z,28.30
2019-04-10T02:23:32.889Z,28.60
2019-04-10T02:24:33.431Z,28.70
2019-04-10T02:25:33.721Z,27.90
2019-04-10T02:26:34.087Z,28.70
2019-04-10T02:27:34.317Z,27.80
2019-04-10T02:28:36.028Z,27.40
2019-04-10T02:29:35.443Z,27.40
2019-04-10T02:30:36.893Z,26.50
2019-04-10T02:31:36.649Z,26.40
2019-04-10T02:32:37.169Z,26.30
2019-04-10T02:33:35.784Z,27.60
2019-04-10T02:34:36.959Z,27.90
2019-04-10T02:35:37.561Z,26.30
2019-04-10T02:36:38.070Z,27.50
2019-04-10T02:37:37.496Z,27.00
2019-04-10T02:38:53.239Z,25.40
2019-04-10T02:39:42.446Z,26.10
2019-04-10T02:40:37.430Z,26.00
2019-04-10T02:41:38.574Z,25.60
2019-04-10T02:42:38.768Z,26.10
2019-04-10T02:43:39.344Z,25.30
2019-04-10T02:44:38.306Z,24.90
2019-04-10T02:45:39.958Z,25.70
2019-04-10T02:46:39.069Z,26.10
2019-04-10T02:47:41.104Z,25.10
2019-04-10T02:48:41.364Z,25.90
2019-04-10T02:49:40.337Z,24.10
2019-04-10T02:50:40.780Z,25.30
2019-04-10T02:51:41.197Z,24.80
2019-04-10T02:52:42.636Z,24.80
2019-04-10T02:53:40.542Z,24.80
2019-04-10T02:54:41.844Z,24.20
2019-04-10T02:55:41.056Z,23.60
2019-04-10T02:56:43.227Z,24.90
2019-04-10T02:57:43.515Z,23.50
2019-04-10T02:58:42.703Z,24.30
2019-04-10T02:59:43.160Z,23.80
2019-04-10T03:00:43.994Z,23.60
2019-04-10T03:01:43.929Z,22.90
2019-04-10T03:02:43.067Z,22.20
2019-04-10T03:03:44.547Z,24.00
2019-04-10T03:04:44.507Z,23.00
2019-04-10T03:05:44.663Z,23.60
2019-04-10T03:06:45.223Z,22.20
2019-04-10T03:07:46.215Z,22.90
2019-04-10T03:09:04.822Z,22.40
2019-04-10T03:10:00.927Z,22.90
2019-04-10T03:10:51.736Z,22.90
2019-04-10T03:12:46.418Z,22.50
2019-04-10T03:13:47.181Z,22.80
2019-04-10T03:14:47.589Z,21.50
2019-04-10T03:15:47.662Z,21.80
2019-04-10T03:16:47.899Z,21.40
2019-04-10T03:17:48.354Z,22.60
2019-04-10T03:18:47.790Z,20.40
2019-04-10T03:19:48.143Z,21.30
2019-04-10T03:20:48.797Z,20.60
2019-04-10T03:21:48.839Z,21.50
2019-04-10T03:22:49.293Z,20.50
2019-04-10T03:23:49.638Z,21.00
2019-04-10T03:24:50.647Z,20.60
2019-04-10T03:25:50.962Z,21.60
2019-04-10T03:26:50.487Z,20.90
2019-04-10T03:27:50.720Z,21.00
2019-04-10T03:28:51.476Z,21.60
2019-04-10T03:29:51.944Z,21.80
2019-04-10T03:30:53.622Z,20.80
2019-04-10T03:31:53.027Z,19.60
2019-04-10T03:32:59.649Z,19.60
2019-04-10T03:33:55.275Z,19.60
2019-04-10T03:34:54.562Z,20.80
2019-04-10T03:35:53.318Z,20.80
2019-04-10T03:36:53.880Z,21.50
2019-04-10T03:37:54.318Z,21.10
2019-04-10T03:39:00.103Z,20.00
2019-04-10T03:39:55.240Z,19.40
2019-04-10T03:40:55.550Z,19.90
2019-04-10T03:41:55.422Z,20.80
2019-04-10T03:42:55.859Z,19.50
2019-04-10T03:43:56.424Z,20.00
2019-04-10T03:44:56.957Z,19.80
2019-04-10T03:45:57.154Z,20.10
2019-04-10T03:46:57.311Z,19.70
2019-04-10T03:47:57.971Z,18.90
2019-04-10T03:48:57.964Z,18.90
2019-04-10T03:49:58.287Z,19.70
2019-04-10T03:50:58.739Z,18.80
2019-04-10T03:51:58.875Z,19.60
2019-04-10T03:53:00.090Z,19.30
2019-04-10T03:53:59.588Z,19.00
2019-04-10T03:54:59.258Z,20.60
2019-04-10T03:55:59.504Z,19.30
2019-04-10T03:57:00.411Z,18.60
2019-04-10T03:58:00.792Z,19.00
2019-04-10T03:59:00.493Z,19.40
2019-04-10T04:00:01.537Z,20.80
2019-04-10T04:01:02.676Z,19.80
2019-04-10T04:02:01.527Z,19.00
2019-04-10T04:03:02.294Z,19.60
2019-04-10T04:04:01.777Z,18.30
2019-04-10T04:05:02.608Z,19.30
2019-04-10T04:06:03.523Z,20.20
2019-04-10T04:07:02.324Z,19.40
2019-04-10T04:08:04.083Z,18.60
2019-04-10T04:09:08.924Z,18.90
2019-04-10T04:10:04.309Z,18.10
2019-04-10T04:11:03.264Z,18.20
2019-04-10T04:12:04.382Z,19.10
2019-04-10T04:13:05.963Z,19.60
2019-04-10T04:14:04.084Z,19.00
2019-04-10T04:15:03.954Z,20.00
2019-04-10T04:16:04.671Z,19.50
2019-04-10T04:17:04.588Z,18.70
2019-04-10T04:18:04.647Z,20.10
2019-04-10T04:19:04.639Z,18.30
2019-04-10T04:20:04.476Z,19.00
2019-04-10T04:21:05.577Z,18.60
2019-04-10T04:22:06.128Z,19.80
2019-04-10T04:23:05.461Z,19.90
2019-04-10T04:24:05.501Z,19.70
2019-04-10T04:25:08.584Z,19.60
2019-04-10T04:26:05.948Z,19.30
2019-04-10T04:27:06.187Z,20.50
2019-04-10T04:28:06.837Z,20.00
2019-04-10T04:29:07.620Z,18.40
2019-04-10T04:30:06.734Z,19.80
2019-04-10T04:31:07.477Z,20.10
2019-04-10T04:32:07.305Z,20.00
2019-04-10T04:33:08.759Z,19.40
2019-04-10T04:34:07.991Z,19.40
2019-04-10T04:35:09.062Z,18.20
2019-04-10T04:36:08.269Z,19.00
2019-04-10T04:37:08.675Z,19.60
2019-04-10T04:38:09.270Z,19.20
2019-04-10T04:39:20.628Z,20.40
2019-04-10T04:40:09.670Z,19.10
2019-04-10T04:41:09.918Z,20.30
2019-04-10T04:42:10.178Z,19.10
2019-04-10T04:43:10.840Z,19.40
2019-04-10T04:44:10.866Z,19.60
2019-04-10T04:45:10.833Z,19.50
2019-04-10T04:46:12.041Z,18.80
2019-04-10T04:47:11.409Z,20.20
2019-04-10T04:48:11.970Z,20.50
2019-04-10T04:49:11.760Z,20.00
2019-04-10T04:50:11.994Z,19.40
2019-04-10T04:51:12.242Z,17.90
2019-04-10T04:52:13.290Z,19.60
2019-04-10T04:53:12.888Z,19.70
2019-04-10T04:54:13.168Z,19.10
2019-04-10T04:55:14.211Z,19.50
2019-04-10T04:56:13.678Z,18.70
2019-04-10T04:57:14.699Z,18.40
2019-04-10T04:58:14.111Z,19.80
2019-04-10T04:59:14.397Z,19.70
2019-04-10T05:00:15.301Z,20.10
2019-04-10T05:01:15.018Z,19.50
2019-04-10T05:02:15.290Z,19.50
2019-04-10T05:03:16.343Z,19.50
2019-04-10T05:04:15.951Z,19.30
2019-04-10T05:05:16.543Z,19.70
2019-04-10T05:06:16.253Z,20.10
2019-04-10T05:07:16.864Z,20.00
2019-04-10T05:08:17.479Z,19.20
2019-04-10T05:09:30.084Z,19.60
2019-04-10T05:10:17.770Z,19.40
2019-04-10T05:11:18.299Z,19.70
2019-04-10T05:12:18.351Z,19.80
2019-04-10T05:13:19.016Z,19.30
2019-04-10T05:14:19.596Z,19.80
2019-04-10T05:15:19.189Z,19.00
2019-04-10T05:16:20.590Z,19.90
2019-04-10T05:17:20.019Z,19.90
2019-04-10T05:18:21.138Z,21.00
2019-04-10T05:20:20.483Z,19.90
2019-04-10T05:21:21.285Z,18.80
2019-04-10T05:22:22.289Z,21.50
2019-04-10T05:23:22.392Z,20.10
2019-04-10T05:24:22.046Z,18.80
2019-04-10T05:25:22.043Z,20.70
2019-04-10T05:26:22.810Z,19.90
2019-04-10T05:27:22.748Z,19.00
2019-04-10T05:28:24.219Z,19.10
2019-04-10T05:29:23.420Z,19.20
2019-04-10T05:30:24.993Z,19.90
2019-04-10T05:31:23.948Z,19.70
2019-04-10T05:32:24.195Z,19.80
2019-04-10T05:33:24.739Z,18.90
2019-04-10T05:34:25.502Z,19.70
2019-04-10T05:35:25.736Z,19.10
2019-04-10T05:36:25.662Z,19.60
2019-04-10T05:37:25.521Z,19.60
2019-04-10T05:38:26.970Z,19.40
2019-04-10T05:39:30.401Z,20.10
2019-04-10T05:40:26.432Z,20.20
2019-04-10T05:41:26.965Z,19.30
2019-04-10T05:42:26.879Z,20.20
2019-04-10T05:43:26.744Z,20.70
2019-04-10T05:44:27.726Z,20.50
2019-04-10T05:45:27.657Z,19.10
2019-04-10T05:46:28.345Z,19.50
2019-04-10T05:47:28.342Z,20.20
2019-04-10T05:48:28.292Z,20.00
2019-04-10T05:49:28.922Z,22.10
2019-04-10T05:50:28.338Z,20.30
2019-04-10T05:51:28.965Z,19.80
2019-04-10T05:52:28.955Z,21.10
2019-04-10T05:53:29.010Z,20.70
2019-04-10T05:54:29.291Z,21.00
2019-04-10T05:55:29.558Z,20.10
2019-04-10T05:56:30.112Z,20.00
2019-04-10T05:57:30.798Z,19.60
2019-04-10T05:58:31.508Z,19.80
2019-04-10T05:59:32.070Z,20.40
2019-04-10T06:00:30.882Z,20.50
2019-04-10T06:01:35.884Z,20.70
2019-04-10T06:02:32.095Z,20.80
2019-04-10T06:03:32.350Z,21.00
2019-04-10T06:04:32.101Z,20.80
2019-04-10T06:05:32.596Z,19.60
2019-04-10T06:06:33.016Z,21.00
2019-04-10T06:07:33.246Z,18.90
2019-04-10T06:08:33.695Z,20.60
2019-04-10T06:09:33.952Z,21.30
2019-04-10T06:10:34.330Z,20.90
2019-04-10T06:11:35.131Z,19.40
2019-04-10T06:12:35.891Z,19.60
2019-04-10T06:13:34.866Z,21.00
2019-04-10T06:14:35.058Z,20.10
2019-04-10T06:15:35.420Z,22.20
2019-04-10T06:16:35.707Z,20.50
2019-04-10T06:17:35.979Z,19.30
2019-04-10T06:18:37.462Z,20.50
2019-04-10T06:19:36.654Z,19.10
2019-04-10T06:20:37.603Z,20.20
2019-04-10T06:21:37.628Z,19.80
2019-04-10T06:22:37.051Z,21.10
2019-04-10T06:23:37.474Z,20.20
2019-04-10T06:24:38.465Z,21.10
2019-04-10T06:25:40.990Z,19.40
2019-04-10T06:26:39.403Z,20.40
2019-04-10T06:27:38.897Z,21.10
2019-04-10T06:28:40.039Z,20.40
2019-04-10T06:29:39.362Z,20.50
2019-04-10T06:30:39.820Z,20.40
2019-04-10T06:31:40.994Z,19.80
2019-04-10T06:32:39.819Z,20.40
2019-04-10T06:33:40.309Z,21.10
2019-04-10T06:34:40.886Z,20.80
2019-04-10T06:35:40.463Z,21.90
2019-04-10T06:36:41.696Z,20.60
2019-04-10T06:37:42.024Z,21.50
2019-04-10T06:38:41.296Z,20.60
2019-04-10T06:39:43.455Z,21.00
2019-04-10T06:40:42.039Z,22.80
2019-04-10T06:41:43.180Z,21.50
2019-04-10T06:42:48.510Z,21.60
2019-04-10T06:43:43.433Z,19.60
2019-04-10T06:44:42.787Z,21.30
2019-04-10T06:45:44.016Z,20.20
2019-04-10T06:46:44.420Z,21.20
2019-04-10T06:47:44.518Z,21.60
2019-04-10T06:48:44.550Z,20.80
2019-04-10T06:49:44.157Z,22.20
2019-04-10T06:50:45.871Z,22.60
2019-04-10T06:51:45.190Z,22.00
2019-04-10T06:52:45.080Z,21.90
2019-04-10T06:53:45.062Z,21.80
2019-04-10T06:54:45.513Z,21.40
2019-04-10T06:55:46.860Z,21.80
2019-04-10T06:56:48.410Z,22.50
2019-04-10T06:57:51.959Z,22.60
2019-04-10T06:58:47.779Z,22.50
2019-04-10T06:59:48.252Z,21.70
2019-04-10T07:00:52.992Z,22.50
2019-04-10T07:01:52.851Z,22.50
2019-04-10T07:02:47.988Z,22.40
2019-04-10T07:03:56.544Z,22.10
2019-04-10T07:04:54.450Z,22.70
2019-04-10T07:06:03.607Z,22.70
2019-04-10T07:06:58.153Z,23.70
2019-04-10T07:07:55.557Z,23.90
2019-04-10T07:08:53.206Z,23.20
2019-04-10T07:09:52.318Z,22.80
2019-04-10T07:10:57.798Z,23.30
2019-04-10T07:11:56.359Z,23.30
2019-04-10T07:12:51.329Z,22.60
2019-04-10T07:13:53.816Z,24.30
2019-04-10T07:14:55.695Z,23.50
2019-04-10T07:15:57.145Z,23.40
2019-04-10T07:16:52.819Z,23.40
2019-04-10T07:17:53.444Z,23.70
2019-04-10T07:18:53.581Z,22.10
2019-04-10T07:19:53.701Z,23.90
2019-04-10T07:20:56.414Z,22.50
2019-04-10T07:21:55.183Z,23.90
2019-04-10T07:22:55.423Z,23.40
2019-04-10T07:23:59.405Z,22.20
2019-04-10T07:24:56.365Z,23.00
2019-04-10T07:25:56.372Z,23.70
2019-04-10T07:26:58.057Z,22.10
2019-04-10T07:27:56.220Z,23.20
2019-04-10T07:28:58.757Z,23.30
2019-04-10T07:29:59.419Z,23.90
2019-04-10T07:30:59.378Z,23.40
2019-04-10T07:31:58.381Z,23.90
2019-04-10T07:32:57.686Z,23.90
2019-04-10T07:33:59.843Z,23.00
2019-04-10T07:35:00.298Z,22.90
2019-04-10T07:35:59.225Z,23.50
2019-04-10T07:37:00.128Z,22.80
2019-04-10T07:37:59.669Z,22.90
2019-04-10T07:38:59.531Z,23.60
2019-04-10T07:40:02.595Z,23.80
2019-04-10T07:40:59.871Z,23.60
2019-04-10T07:42:00.025Z,22.20
2019-04-10T07:43:00.094Z,22.90
2019-04-10T07:44:00.342Z,22.90
2019-04-10T07:45:00.764Z,22.20
2019-04-10T07:46:01.067Z,22.60
2019-04-10T07:47:00.986Z,21.50
2019-04-10T07:48:02.421Z,22.40
2019-04-10T07:49:01.601Z,22.50
2019-04-10T07:50:03.702Z,22.30
2019-04-10T07:51:02.845Z,23.00
2019-04-10T07:52:03.646Z,21.40
2019-04-10T07:53:03.069Z,22.00
2019-04-10T07:54:03.986Z,22.40
2019-04-10T07:55:02.640Z,22.30
2019-04-10T07:56:09.000Z,21.50
2019-04-10T07:57:04.298Z,22.00
2019-04-10T07:58:03.336Z,21.70
2019-04-10T07:59:03.312Z,21.50
2019-04-10T08:00:03.819Z,21.60
2019-04-10T08:01:03.892Z,20.70
2019-04-10T08:02:05.978Z,20.30
2019-04-10T08:03:04.207Z,22.10
2019-04-10T08:04:04.335Z,21.70
2019-04-10T08:05:04.331Z,21.70
2019-04-10T08:06:04.639Z,23.00
2019-04-10T08:07:05.255Z,22.90
2019-04-10T08:08:05.263Z,21.60
2019-04-10T08:09:05.382Z,22.50
2019-04-10T08:10:05.694Z,25.00
2019-04-10T08:11:07.059Z,25.00
2019-04-10T08:12:07.246Z,23.30
2019-04-10T08:13:06.867Z,22.00
2019-04-10T08:14:08.413Z,21.50
2019-04-10T08:15:07.543Z,21.70
2019-04-10T08:16:08.288Z,21.30
2019-04-10T08:17:08.240Z,21.40
2019-04-10T08:18:08.662Z,21.60
2019-04-10T08:19:10.384Z,21.30
2019-04-10T08:20:09.963Z,21.80
2019-04-10T08:21:09.775Z,21.50
2019-04-10T08:22:10.307Z,21.00
2019-04-10T08:23:10.451Z,21.10
2019-04-10T08:24:11.461Z,20.50
2019-04-10T08:25:11.032Z,20.50
2019-04-10T08:26:12.157Z,20.50
2019-04-10T08:27:11.771Z,21.50
2019-04-10T08:28:11.999Z,21.20
2019-04-10T08:29:12.283Z,22.60
2019-04-10T08:30:12.762Z,20.60
2019-04-10T08:31:13.114Z,21.40
2019-04-10T08:32:13.923Z,21.00
2019-04-10T08:33:14.102Z,21.00
2019-04-10T08:34:13.748Z,20.90
2019-04-10T08:35:13.959Z,20.40
2019-04-10T08:36:15.097Z,21.10
2019-04-10T08:37:14.651Z,21.80
2019-04-10T08:38:15.160Z,22.10
2019-04-10T08:39:28.431Z,24.10
2019-04-10T08:40:15.937Z,21.90
2019-04-10T08:41:15.699Z,21.10
2019-04-10T08:42:16.838Z,20.80
2019-04-10T08:43:16.565Z,20.20
2019-04-10T08:44:16.390Z,20.70
2019-04-10T08:45:16.971Z,21.40
2019-04-10T08:46:17.722Z,20.20
2019-04-10T08:47:17.286Z,21.00
2019-04-10T08:48:17.698Z,20.20
2019-04-10T08:49:18.395Z,21.00
2019-04-10T08:50:17.889Z,20.80
2019-04-10T08:51:19.162Z,20.70
2019-04-10T08:52:18.368Z,21.10
2019-04-10T08:53:18.806Z,21.40
2019-04-10T08:54:20.186Z,21.50
2019-04-10T08:55:19.767Z,20.90
2019-04-10T08:56:20.457Z,20.80
2019-04-10T08:57:19.454Z,21.20
2019-04-10T08:58:20.788Z,21.90
2019-04-10T08:59:19.981Z,20.70
2019-04-10T09:00:20.675Z,22.10
2019-04-10T09:01:20.926Z,21.00
2019-04-10T09:02:21.925Z,21.70
2019-04-10T09:03:21.189Z,21.10
2019-04-10T09:04:21.659Z,21.50
2019-04-10T09:05:21.902Z,23.70
2019-04-10T09:06:23.109Z,21.70
2019-04-10T09:07:22.454Z,22.30
2019-04-10T09:08:22.985Z,20.70
2019-04-10T09:09:23.679Z,19.80
2019-04-10T09:10:23.238Z,20.10
2019-04-10T09:11:26.921Z,20.40
2019-04-10T09:12:24.003Z,20.50
2019-04-10T09:13:24.324Z,20.80
2019-04-10T09:14:25.196Z,20.50
2019-04-10T09:15:25.748Z,22.10
2019-04-10T09:16:25.193Z,25.60
2019-04-10T09:17:25.519Z,20.10
2019-04-10T09:18:25.960Z,21.80
2019-04-10T09:19:26.190Z,22.60
2019-04-10T09:20:26.859Z,20.50
2019-04-10T09:21:26.793Z,20.20
2019-04-10T09:22:27.055Z,21.00
2019-04-10T09:23:37.374Z,21.00
2019-04-10T09:24:27.982Z,20.70
2019-04-10T09:25:28.081Z,20.50
2019-04-10T09:26:28.645Z,19.60
2019-04-10T09:27:29.017Z,20.50
2019-04-10T09:28:28.643Z,20.50
2019-04-10T09:29:29.844Z,20.60
2019-04-10T09:30:29.283Z,20.40
2019-04-10T09:31:29.671Z,20.40
2019-04-10T09:32:30.639Z,20.10
2019-04-10T09:33:32.216Z,19.80
2019-04-10T09:34:30.523Z,20.00
2019-04-10T09:35:30.949Z,21.40
2019-04-10T09:36:31.257Z,20.10
2019-04-10T09:37:32.515Z,19.30
2019-04-10T09:38:31.788Z,19.50
2019-04-10T09:39:32.049Z,20.70
2019-04-10T09:40:32.309Z,19.90
2019-04-10T09:41:32.789Z,19.50
2019-04-10T09:42:33.256Z,20.20
2019-04-10T09:43:33.865Z,20.20
2019-04-10T09:44:33.275Z,21.20
2019-04-10T09:45:33.770Z,20.20
2019-04-10T09:46:35.096Z,20.10
2019-04-10T09:47:34.788Z,18.90
2019-04-10T09:48:35.766Z,19.90
2019-04-10T09:49:40.432Z,20.00
2019-04-10T09:50:35.743Z,19.30
2019-04-10T09:51:36.189Z,21.20
2019-04-10T09:52:35.827Z,20.30
2019-04-10T09:53:39.177Z,20.30
2019-04-10T09:54:38.529Z,19.80
2019-04-10T09:55:36.784Z,20.60
2019-04-10T09:56:37.209Z,20.00
2019-04-10T09:57:37.670Z,20.20
2019-04-10T09:58:37.748Z,20.60
2019-04-10T09:59:39.782Z,19.80
2019-04-10T10:02:19.648Z,19.40
2019-04-10T10:02:50.449Z,18.30
2019-04-10T10:03:50.821Z,20.60
2019-04-10T10:04:50.607Z,19.00
2019-04-10T10:05:51.007Z,20.10
2019-04-10T10:06:51.484Z,19.90
2019-04-10T10:07:51.008Z,20.60
2019-04-10T10:08:52.312Z,19.60
2019-04-10T10:09:51.642Z,19.30
2019-04-10T10:10:51.903Z,18.70
2019-04-10T10:11:53.404Z,19.80
2019-04-10T10:12:52.762Z,19.00
2019-04-10T10:13:53.052Z,19.80
2019-04-10T10:14:53.887Z,19.00
2019-04-10T10:15:54.580Z,19.40
2019-04-10T10:16:54.137Z,19.50
2019-04-10T10:17:55.129Z,19.40
2019-04-10T10:18:55.133Z,20.00
2019-04-10T10:19:55.604Z,18.20
2019-04-10T10:20:56.433Z,19.30
2019-04-10T10:21:56.793Z,18.90
2019-04-10T10:22:57.713Z,18.70
2019-04-10T10:23:58.140Z,19.00
2019-04-10T10:24:57.797Z,20.00
2019-04-10T10:25:57.909Z,18.90
2019-04-10T10:26:57.842Z,17.90
2019-04-10T10:27:58.580Z,19.40
2019-04-10T10:28:58.655Z,19.10
2019-04-10T10:29:59.868Z,19.20
2019-04-10T10:30:59.937Z,19.10
2019-04-10T10:31:58.976Z,18.90
2019-04-10T10:32:59.453Z,18.20
2019-04-10T10:33:59.325Z,19.00
2019-04-10T10:34:59.589Z,18.70
2019-04-10T10:35:59.989Z,19.00
2019-04-10T10:37:00.256Z,19.30
2019-04-10T10:38:01.066Z,19.60
2019-04-10T10:39:08.760Z,18.50
2019-04-10T10:40:01.328Z,18.50
2019-04-10T10:41:01.269Z,19.00
2019-04-10T10:42:01.754Z,19.30
2019-04-10T10:43:02.408Z,20.70
2019-04-10T10:44:01.800Z,20.00
2019-04-10T10:45:02.914Z,19.90
2019-04-10T10:46:03.008Z,19.70
2019-04-10T10:47:02.571Z,19.60
2019-04-10T10:48:03.332Z,20.00
2019-04-10T10:49:02.546Z,19.60
2019-04-10T10:50:03.147Z,20.70
2019-04-10T10:51:04.512Z,19.30
2019-04-10T10:52:03.565Z,19.20
2019-04-10T10:53:04.008Z,19.00
2019-04-10T10:54:04.487Z,19.10
2019-04-10T10:55:03.853Z,18.80
2019-04-10T10:56:04.356Z,17.80
2019-04-10T10:57:04.802Z,18.30
2019-04-10T10:58:05.715Z,19.10
2019-04-10T10:59:05.094Z,18.80
2019-04-10T11:00:06.199Z,18.00
2019-04-10T11:01:05.641Z,18.30
2019-04-10T11:02:06.431Z,18.30
2019-04-10T11:03:06.306Z,18.10
2019-04-10T11:04:06.810Z,18.80
2019-04-10T11:05:07.276Z,18.20
2019-04-10T11:06:07.133Z,18.00
2019-04-10T11:07:08.551Z,18.30
2019-04-10T11:08:07.965Z,18.60
2019-04-10T11:09:08.422Z,18.20
2019-04-10T11:10:08.623Z,18.00
2019-04-10T11:11:08.758Z,17.90
2019-04-10T11:12:09.514Z,18.30
2019-04-10T11:13:09.149Z,19.00
2019-04-10T11:14:10.886Z,18.50
2019-04-10T11:15:10.127Z,17.40
2019-04-10T11:16:09.899Z,18.20
2019-04-10T11:17:11.576Z,18.50
2019-04-10T11:18:10.344Z,17.90
2019-04-10T11:19:10.786Z,17.30
2019-04-10T11:20:12.626Z,17.60
2019-04-10T11:22:12.643Z,17.20
2019-04-10T11:23:12.047Z,17.20
2019-04-10T11:24:11.396Z,18.00
2019-04-10T11:25:12.212Z,16.60
2019-04-10T11:26:14.038Z,18.10
2019-04-10T11:27:12.213Z,16.80
2019-04-10T11:28:12.906Z,16.70
2019-04-10T11:29:14.384Z,16.60
2019-04-10T11:30:13.603Z,16.70
2019-04-10T11:31:13.629Z,18.30
2019-04-10T11:32:14.305Z,18.90
2019-04-10T11:33:14.891Z,20.30
2019-04-10T11:34:14.287Z,18.50
2019-04-10T11:35:15.564Z,19.00
2019-04-10T11:36:15.166Z,17.40
2019-04-10T11:37:24.176Z,17.10
2019-04-10T11:38:16.211Z,16.70
2019-04-10T11:39:22.536Z,17.20
2019-04-10T11:40:17.986Z,16.70
2019-04-10T11:41:18.966Z,15.80
2019-04-10T11:42:15.849Z,15.30
2019-04-10T11:43:16.658Z,16.10
2019-04-10T11:45:18.475Z,15.90
2019-04-10T11:46:16.974Z,15.70
2019-04-10T11:47:17.429Z,16.50
2019-04-10T11:48:19.757Z,16.10
2019-04-10T11:49:20.167Z,15.30
2019-04-10T11:50:18.762Z,15.60
2019-04-10T11:51:18.578Z,16.40
2019-04-10T11:52:21.546Z,16.30
2019-04-10T11:53:19.194Z,16.90
2019-04-10T11:54:23.512Z,16.20
2019-04-10T11:55:22.016Z,16.40
2019-04-10T11:56:21.200Z,16.30
2019-04-10T11:57:22.753Z,16.10
2019-04-10T11:58:21.739Z,16.30
2019-04-10T11:59:21.934Z,16.70
2019-04-10T12:00:23.754Z,15.70
2019-04-10T12:01:22.965Z,15.20
2019-04-10T12:02:24.965Z,14.90
2019-04-10T12:03:24.054Z,15.20
2019-04-10T12:04:23.241Z,15.80
2019-04-10T12:05:25.431Z,17.40
2019-04-10T12:06:25.272Z,16.80
2019-04-10T12:07:58.615Z,15.80
2019-04-10T12:08:45.181Z,16.70
2019-04-10T12:11:24.698Z,16.70
2019-04-10T12:12:24.020Z,16.40
2019-04-10T12:13:24.399Z,15.30
2019-04-10T12:14:25.610Z,16.20
2019-04-10T12:15:24.771Z,15.90
2019-04-10T12:16:25.166Z,16.30
2019-04-10T12:17:25.668Z,16.20
2019-04-10T12:18:26.644Z,16.30
2019-04-10T12:19:25.429Z,15.10
2019-04-10T12:20:25.535Z,15.80
2019-04-10T12:21:26.200Z,16.20
2019-04-10T12:22:26.043Z,15.40
2019-04-10T12:23:27.133Z,15.00
2019-04-10T12:24:26.432Z,15.40
2019-04-10T12:25:27.123Z,15.40
2019-04-10T12:26:27.618Z,15.80
2019-04-10T12:27:27.643Z,15.60
2019-04-10T12:28:28.255Z,16.40
2019-04-10T12:29:28.987Z,15.90
2019-04-10T12:30:28.974Z,16.30
2019-04-10T12:31:28.874Z,15.40
2019-04-10T12:32:30.413Z,15.40
2019-04-10T12:33:29.767Z,16.30
2019-04-10T12:34:30.015Z,15.40
2019-04-10T12:35:30.411Z,16.20
2019-04-10T12:36:31.069Z,15.80
2019-04-10T12:37:31.087Z,16.80
2019-04-10T12:38:31.903Z,17.00
2019-04-10T12:39:32.198Z,17.10
2019-04-10T12:40:32.861Z,17.40
2019-04-10T12:41:33.168Z,17.10
2019-04-10T12:42:32.407Z,16.00
2019-04-10T12:43:32.681Z,16.20
2019-04-10T12:44:33.781Z,16.60
2019-04-10T12:45:33.192Z,16.40
2019-04-10T12:46:33.477Z,15.40
2019-04-10T12:47:34.278Z,17.10
2019-04-10T12:48:34.749Z,15.60
2019-04-10T12:49:34.533Z,16.60
2019-04-10T12:50:34.997Z,17.70
2019-04-10T12:51:36.200Z,16.70
2019-04-10T12:52:35.814Z,16.90
2019-04-10T12:53:35.894Z,15.60
2019-04-10T12:54:35.927Z,16.30
2019-04-10T12:55:36.733Z,16.20
2019-04-10T12:56:36.730Z,15.60
2019-04-10T12:57:37.090Z,16.60
2019-04-10T12:58:37.412Z,16.00
2019-04-10T12:59:37.956Z,15.70
2019-04-10T13:00:38.141Z,14.90
2019-04-10T13:01:38.586Z,15.50
2019-04-10T13:02:38.891Z,15.40
2019-04-10T13:03:39.077Z,15.10
2019-04-10T13:04:40.720Z,15.50
2019-04-10T13:05:39.276Z,16.10